sensor_id;sensor_type;location;lat;lon;timestamp;pressure;altitude;pressure_sealevel;temperature;humidity
72570;BME280;60594;50.204;8.844;2023-03-20T00:01:24;100161.06;;;10.28;94.30
72570;BME280;60594;50.204;8.844;2023-03-20T00:03:51;100165.16;;;10.10;95.29
72570;BME280;60594;50.204;8.844;2023-03-20T00:06:20;100164.53;;;10.28;94.31
72570;BME280;60594;50.204;8.844;2023-03-20T00:08:49;100160.38;;;9.91;96.15
72570;BME280;60594;50.204;8.844;2023-03-20T00:13:56;100165.69;;;9.69;97.53
72570;BME280;60594;50.204;8.844;2023-03-20T00:16:26;100160.38;;;9.69;97.44
72570;BME280;60594;50.204;8.844;2023-03-20T00:18:54;100162.69;;;9.74;97.57
72570;BME280;60594;50.204;8.844;2023-03-20T00:21:21;100169.44;;;9.67;97.58
72570;BME280;60594;50.204;8.844;2023-03-20T00:23:48;100172.09;;;9.67;98.05
72570;BME280;60594;50.204;8.844;2023-03-20T00:26:16;100177.72;;;9.51;98.69
72570;BME280;60594;50.204;8.844;2023-03-20T00:28:47;100182.69;;;9.45;98.98
72570;BME280;60594;50.204;8.844;2023-03-20T00:31:30;100180.09;;;9.32;100.00
72570;BME280;60594;50.204;8.844;2023-03-20T00:33:59;100185.06;;;9.37;99.93
72570;BME280;60594;50.204;8.844;2023-03-20T00:36:27;100168.00;;;9.28;100.00
72570;BME280;60594;50.204;8.844;2023-03-20T00:38:53;100178.53;;;9.30;100.00
72570;BME280;60594;50.204;8.844;2023-03-20T00:41:28;100179.94;;;9.23;100.00
72570;BME280;60594;50.204;8.844;2023-03-20T00:44:18;100184.28;;;9.24;100.00
72570;BME280;60594;50.204;8.844;2023-03-20T00:46:50;100185.84;;;9.15;100.00
72570;BME280;60594;50.204;8.844;2023-03-20T00:49:19;100182.66;;;9.10;100.00
72570;BME280;60594;50.204;8.844;2023-03-20T00:51:47;100193.06;;;9.13;100.00
72570;BME280;60594;50.204;8.844;2023-03-20T00:54:15;100191.59;;;9.09;100.00
72570;BME280;60594;50.204;8.844;2023-03-20T00:56:58;100187.03;;;9.11;100.00
72570;BME280;60594;50.204;8.844;2023-03-20T00:59:28;100188.94;;;9.09;100.00
72570;BME280;60594;50.204;8.844;2023-03-20T01:01:57;100188.44;;;9.04;100.00
72570;BME280;60594;50.204;8.844;2023-03-20T01:04:28;100192.31;;;9.00;100.00
72570;BME280;60594;50.204;8.844;2023-03-20T01:06:56;100191.22;;;9.03;100.00
72570;BME280;60594;50.204;8.844;2023-03-20T01:09:22;100189.41;;;9.03;100.00
72570;BME280;60594;50.204;8.844;2023-03-20T01:11:49;100196.44;;;9.04;100.00
72570;BME280;60594;50.204;8.844;2023-03-20T01:14:15;100196.00;;;8.98;100.00
72570;BME280;60594;50.204;8.844;2023-03-20T01:16:43;100195.25;;;9.08;100.00
72570;BME280;60594;50.204;8.844;2023-03-20T01:19:12;100196.00;;;8.98;100.00
72570;BME280;60594;50.204;8.844;2023-03-20T01:21:40;100199.09;;;9.04;100.00
72570;BME280;60594;50.204;8.844;2023-03-20T01:24:07;100199.31;;;9.25;100.00
72570;BME280;60594;50.204;8.844;2023-03-20T01:26:39;100201.09;;;9.24;100.00
72570;BME280;60594;50.204;8.844;2023-03-20T01:29:18;100200.50;;;9.21;99.78
72570;BME280;60594;50.204;8.844;2023-03-20T01:31:46;100190.09;;;9.18;100.00
72570;BME280;60594;50.204;8.844;2023-03-20T01:34:12;100177.28;;;8.99;100.00
72570;BME280;60594;50.204;8.844;2023-03-20T01:36:49;100189.00;;;8.97;100.00
72570;BME280;60594;50.204;8.844;2023-03-20T01:39:16;100186.13;;;9.00;100.00
72570;BME280;60594;50.204;8.844;2023-03-20T01:41:45;100190.84;;;9.07;100.00
72570;BME280;60594;50.204;8.844;2023-03-20T01:44:24;100184.56;;;8.97;100.00
72570;BME280;60594;50.204;8.844;2023-03-20T01:46:56;100190.94;;;8.95;100.00
72570;BME280;60594;50.204;8.844;2023-03-20T01:51:51;100193.06;;;8.90;100.00
72570;BME280;60594;50.204;8.844;2023-03-20T01:54:26;100191.81;;;9.06;100.00
72570;BME280;60594;50.204;8.844;2023-03-20T01:57:04;100193.13;;;9.24;100.00
72570;BME280;60594;50.204;8.844;2023-03-20T01:59:56;100193.88;;;9.26;99.54
72570;BME280;60594;50.204;8.844;2023-03-20T02:02:29;100196.75;;;9.23;99.19
72570;BME280;60594;50.204;8.844;2023-03-20T02:04:59;100195.34;;;9.30;99.58
72570;BME280;60594;50.204;8.844;2023-03-20T02:07:28;100200.06;;;9.14;99.30
72570;BME280;60594;50.204;8.844;2023-03-20T02:10:00;100201.97;;;9.25;99.65
72570;BME280;60594;50.204;8.844;2023-03-20T02:12:45;100196.28;;;9.29;98.97
72570;BME280;60594;50.204;8.844;2023-03-20T02:15:16;100203.69;;;9.37;98.73
72570;BME280;60594;50.204;8.844;2023-03-20T02:18:01;100203.66;;;9.26;98.68
72570;BME280;60594;50.204;8.844;2023-03-20T02:23:39;100205.00;;;9.08;100.00
72570;BME280;60594;50.204;8.844;2023-03-20T02:37:56;100216.59;;;8.83;100.00
72570;BME280;60594;50.204;8.844;2023-03-20T02:43:44;100212.34;;;8.81;100.00
72570;BME280;60594;50.204;8.844;2023-03-20T02:52:08;100226.72;;;9.02;100.00
72570;BME280;60594;50.204;8.844;2023-03-20T02:55:47;100223.00;;;9.04;100.00
72570;BME280;60594;50.204;8.844;2023-03-20T03:00:25;100223.13;;;9.03;100.00
72570;BME280;60594;50.204;8.844;2023-03-20T03:03:03;100226.91;;;9.11;99.49
72570;BME280;60594;50.204;8.844;2023-03-20T03:05:47;100226.59;;;8.80;100.00
72570;BME280;60594;50.204;8.844;2023-03-20T03:08:17;100225.75;;;8.79;100.00
72570;BME280;60594;50.204;8.844;2023-03-20T03:10:53;100233.31;;;8.96;100.00
72570;BME280;60594;50.204;8.844;2023-03-20T03:13:26;100230.78;;;9.18;99.42
72570;BME280;60594;50.204;8.844;2023-03-20T03:15:58;100224.59;;;9.30;98.34
72570;BME280;60594;50.204;8.844;2023-03-20T03:18:31;100232.34;;;9.33;97.70
72570;BME280;60594;50.204;8.844;2023-03-20T03:21:03;100230.88;;;9.40;97.72
72570;BME280;60594;50.204;8.844;2023-03-20T03:23:39;100231.16;;;9.37;97.37
72570;BME280;60594;50.204;8.844;2023-03-20T03:26:12;100236.91;;;9.31;98.05
72570;BME280;60594;50.204;8.844;2023-03-20T03:28:47;100231.47;;;9.33;97.79
72570;BME280;60594;50.204;8.844;2023-03-20T03:31:17;100234.53;;;9.16;98.84
72570;BME280;60594;50.204;8.844;2023-03-20T03:33:47;100231.91;;;9.03;99.29
72570;BME280;60594;50.204;8.844;2023-03-20T03:38:49;100220.88;;;8.73;100.00
72570;BME280;60594;50.204;8.844;2023-03-20T03:41:47;100232.72;;;8.93;100.00
72570;BME280;60594;50.204;8.844;2023-03-20T03:44:39;100239.03;;;8.79;100.00
72570;BME280;60594;50.204;8.844;2023-03-20T03:47:19;100231.69;;;9.06;100.00
72570;BME280;60594;50.204;8.844;2023-03-20T03:49:52;100226.22;;;9.20;98.99
72570;BME280;60594;50.204;8.844;2023-03-20T03:52:22;100226.53;;;8.92;100.00
72570;BME280;60594;50.204;8.844;2023-03-20T03:54:53;100238.38;;;9.12;99.38
72570;BME280;60594;50.204;8.844;2023-03-20T03:57:33;100235.50;;;9.15;99.09
72570;BME280;60594;50.204;8.844;2023-03-20T04:00:04;100238.78;;;9.18;98.87
72570;BME280;60594;50.204;8.844;2023-03-20T04:02:42;100244.28;;;9.04;99.39
72570;BME280;60594;50.204;8.844;2023-03-20T04:05:10;100244.66;;;9.11;100.00
72570;BME280;60594;50.204;8.844;2023-03-20T04:07:37;100253.56;;;9.22;99.66
72570;BME280;60594;50.204;8.844;2023-03-20T04:10:04;100244.66;;;9.34;98.51
72570;BME280;60594;50.204;8.844;2023-03-20T04:12:37;100252.13;;;9.29;98.51
72570;BME280;60594;50.204;8.844;2023-03-20T04:15:06;100256.56;;;9.41;98.14
72570;BME280;60594;50.204;8.844;2023-03-20T04:17:33;100258.78;;;9.35;98.87
72570;BME280;60594;50.204;8.844;2023-03-20T04:20:01;100255.19;;;9.36;98.50
72570;BME280;60594;50.204;8.844;2023-03-20T04:22:27;100256.56;;;9.41;97.77
72570;BME280;60594;50.204;8.844;2023-03-20T04:24:56;100243.97;;;9.20;98.36
72570;BME280;60594;50.204;8.844;2023-03-20T04:27:26;100247.03;;;9.03;100.00
72570;BME280;60594;50.204;8.844;2023-03-20T04:29:53;100252.78;;;8.97;100.00
72570;BME280;60594;50.204;8.844;2023-03-20T04:32:37;100255.56;;;8.95;100.00
72570;BME280;60594;50.204;8.844;2023-03-20T04:35:23;100261.94;;;9.29;99.31
72570;BME280;60594;50.204;8.844;2023-03-20T04:37:52;100271.31;;;9.45;98.45
72570;BME280;60594;50.204;8.844;2023-03-20T04:40:19;100267.97;;;9.54;97.72
72570;BME280;60594;50.204;8.844;2023-03-20T04:42:46;100267.41;;;9.38;98.53
72570;BME280;60594;50.204;8.844;2023-03-20T04:45:13;100269.50;;;9.22;98.93
72570;BME280;60594;50.204;8.844;2023-03-20T04:47:39;100264.47;;;9.30;99.01
72570;BME280;60594;50.204;8.844;2023-03-20T04:50:07;100273.81;;;9.36;97.95
72570;BME280;60594;50.204;8.844;2023-03-20T04:52:33;100276.91;;;9.53;97.39
72570;BME280;60594;50.204;8.844;2023-03-20T04:55:01;100285.28;;;9.60;96.76
72570;BME280;60594;50.204;8.844;2023-03-20T04:57:28;100277.66;;;9.66;95.99
72570;BME280;60594;50.204;8.844;2023-03-20T04:59:57;100281.06;;;9.68;96.28
72570;BME280;60594;50.204;8.844;2023-03-20T05:02:24;100282.66;;;9.71;95.84
72570;BME280;60594;50.204;8.844;2023-03-20T05:04:51;100291.84;;;9.67;96.22
72570;BME280;60594;50.204;8.844;2023-03-20T05:07:17;100286.03;;;9.62;96.39
72570;BME280;60594;50.204;8.844;2023-03-20T05:09:55;100286.09;;;9.49;96.84
72570;BME280;60594;50.204;8.844;2023-03-20T05:12:24;100294.63;;;9.42;96.91
72570;BME280;60594;50.204;8.844;2023-03-20T05:15:22;100290.06;;;9.44;97.17
72570;BME280;60594;50.204;8.844;2023-03-20T05:18:13;100284.72;;;9.44;97.43
72570;BME280;60594;50.204;8.844;2023-03-20T05:20:58;100275.63;;;9.35;97.70
72570;BME280;60594;50.204;8.844;2023-03-20T05:23:35;100288.34;;;9.43;98.34
72570;BME280;60594;50.204;8.844;2023-03-20T05:26:31;100278.97;;;9.50;97.46
72570;BME280;60594;50.204;8.844;2023-03-20T05:29:16;100272.63;;;9.16;98.90
72570;BME280;60594;50.204;8.844;2023-03-20T05:32:02;100267.25;;;8.93;100.00
72570;BME280;60594;50.204;8.844;2023-03-20T05:34:37;100276.44;;;8.89;100.00
72570;BME280;60594;50.204;8.844;2023-03-20T05:37:11;100273.69;;;9.14;99.91
72570;BME280;60594;50.204;8.844;2023-03-20T05:39:59;100263.16;;;9.12;100.00
72570;BME280;60594;50.204;8.844;2023-03-20T05:42:52;100265.09;;;9.34;99.50
72570;BME280;60594;50.204;8.844;2023-03-20T05:45:28;100266.78;;;9.35;98.89
72570;BME280;60594;50.204;8.844;2023-03-20T05:48:08;100263.25;;;8.87;100.00
72570;BME280;60594;50.204;8.844;2023-03-20T05:50:41;100261.25;;;8.78;100.00
72570;BME280;60594;50.204;8.844;2023-03-20T05:53:19;100273.63;;;9.03;100.00
72570;BME280;60594;50.204;8.844;2023-03-20T05:56:01;100280.25;;;9.21;100.00
72570;BME280;60594;50.204;8.844;2023-03-20T05:58:41;100274.25;;;9.30;99.74
72570;BME280;60594;50.204;8.844;2023-03-20T06:01:31;100281.25;;;9.31;99.78
72570;BME280;60594;50.204;8.844;2023-03-20T06:04:20;100269.44;;;9.35;98.87
72570;BME280;60594;50.204;8.844;2023-03-20T06:07:13;100267.06;;;9.19;99.75
72570;BME280;60594;50.204;8.844;2023-03-20T06:09:42;100272.63;;;9.16;99.81
72570;BME280;60594;50.204;8.844;2023-03-20T06:12:12;100277.06;;;9.16;100.00
72570;BME280;60594;50.204;8.844;2023-03-20T06:14:39;100274.63;;;9.36;100.00
72570;BME280;60594;50.204;8.844;2023-03-20T06:17:07;100277.34;;;9.47;98.59
72570;BME280;60594;50.204;8.844;2023-03-20T06:19:35;100288.56;;;9.16;100.00
72570;BME280;60594;50.204;8.844;2023-03-20T06:22:02;100288.72;;;9.02;100.00
72570;BME280;60594;50.204;8.844;2023-03-20T06:24:30;100290.97;;;9.32;100.00
72570;BME280;60594;50.204;8.844;2023-03-20T06:26:57;100284.41;;;9.48;99.50
72570;BME280;60594;50.204;8.844;2023-03-20T06:29:25;100294.94;;;9.50;98.38
72570;BME280;60594;50.204;8.844;2023-03-20T06:31:54;100298.75;;;9.46;98.84
72570;BME280;60594;50.204;8.844;2023-03-20T06:34:28;100297.06;;;9.45;99.31
72570;BME280;60594;50.204;8.844;2023-03-20T06:36:56;100302.91;;;9.50;99.33
72570;BME280;60594;50.204;8.844;2023-03-20T06:39:23;100291.72;;;9.45;99.37
72570;BME280;60594;50.204;8.844;2023-03-20T06:41:50;100294.88;;;9.39;99.99
72570;BME280;60594;50.204;8.844;2023-03-20T06:44:18;100302.53;;;9.54;99.34
72570;BME280;60594;50.204;8.844;2023-03-20T06:47:09;100304.28;;;9.66;97.82
72570;BME280;60594;50.204;8.844;2023-03-20T06:49:35;100298.25;;;9.64;98.10
72570;BME280;60594;50.204;8.844;2023-03-20T06:52:02;100302.69;;;9.64;97.86
72570;BME280;60594;50.204;8.844;2023-03-20T06:54:31;100303.34;;;9.67;98.16
72570;BME280;60594;50.204;8.844;2023-03-20T06:56:58;100301.47;;;9.57;98.19
72570;BME280;60594;50.204;8.844;2023-03-20T06:59:25;100304.53;;;9.63;98.70
72570;BME280;60594;50.204;8.844;2023-03-20T07:01:55;100295.59;;;9.64;99.05
72570;BME280;60594;50.204;8.844;2023-03-20T07:04:23;100304.91;;;9.70;97.75
72570;BME280;60594;50.204;8.844;2023-03-20T07:06:53;100310.84;;;9.73;98.23
72570;BME280;60594;50.204;8.844;2023-03-20T07:09:20;100301.41;;;9.69;97.64
72570;BME280;60594;50.204;8.844;2023-03-20T07:11:47;100311.09;;;9.47;99.48
72570;BME280;60594;50.204;8.844;2023-03-20T07:14:14;100311.50;;;9.53;99.45
72570;BME280;60594;50.204;8.844;2023-03-20T07:16:52;100318.66;;;9.64;99.51
72570;BME280;60594;50.204;8.844;2023-03-20T07:19:21;100318.34;;;9.68;100.00
72570;BME280;60594;50.204;8.844;2023-03-20T07:21:56;100314.97;;;9.77;97.85
72570;BME280;60594;50.204;8.844;2023-03-20T07:24:24;100318.50;;;9.78;97.37
72570;BME280;60594;50.204;8.844;2023-03-20T07:26:50;100324.22;;;9.61;98.69
72570;BME280;60594;50.204;8.844;2023-03-20T07:29:17;100313.22;;;9.65;98.29
72570;BME280;60594;50.204;8.844;2023-03-20T07:31:44;100324.91;;;9.75;98.19
72570;BME280;60594;50.204;8.844;2023-03-20T07:34:22;100329.53;;;9.84;97.89
72570;BME280;60594;50.204;8.844;2023-03-20T07:36:49;100338.19;;;9.99;97.27
72570;BME280;60594;50.204;8.844;2023-03-20T07:39:20;100331.28;;;9.96;96.15
72570;BME280;60594;50.204;8.844;2023-03-20T07:41:57;100349.50;;;9.66;97.39
72570;BME280;60594;50.204;8.844;2023-03-20T07:44:45;100342.34;;;9.79;97.11
72570;BME280;60594;50.204;8.844;2023-03-20T07:47:11;100335.47;;;9.88;97.26
72570;BME280;60594;50.204;8.844;2023-03-20T07:49:38;100338.75;;;9.91;96.80
72570;BME280;60594;50.204;8.844;2023-03-20T07:52:07;100341.53;;;9.90;97.91
72570;BME280;60594;50.204;8.844;2023-03-20T07:54:34;100340.81;;;9.88;97.79
72570;BME280;60594;50.204;8.844;2023-03-20T07:57:00;100343.81;;;9.83;97.93
72570;BME280;60594;50.204;8.844;2023-03-20T07:59:27;100349.66;;;9.65;98.63
72570;BME280;60594;50.204;8.844;2023-03-20T08:01:53;100348.16;;;9.61;98.76
72570;BME280;60594;50.204;8.844;2023-03-20T08:04:20;100342.78;;;9.26;99.23
72570;BME280;60594;50.204;8.844;2023-03-20T08:06:48;100337.59;;;9.12;99.11
72570;BME280;60594;50.204;8.844;2023-03-20T08:09:16;100346.09;;;9.17;100.00
72570;BME280;60594;50.204;8.844;2023-03-20T08:11:43;100340.34;;;9.23;100.00
72570;BME280;60594;50.204;8.844;2023-03-20T08:14:10;100348.31;;;9.23;100.00
72570;BME280;60594;50.204;8.844;2023-03-20T08:16:36;100333.09;;;9.25;100.00
72570;BME280;60594;50.204;8.844;2023-03-20T08:19:03;100332.38;;;9.23;100.00
72570;BME280;60594;50.204;8.844;2023-03-20T08:21:31;100350.97;;;9.59;100.00
72570;BME280;60594;50.204;8.844;2023-03-20T08:23:58;100345.00;;;9.56;100.00
72570;BME280;60594;50.204;8.844;2023-03-20T08:26:24;100351.41;;;9.53;100.00
72570;BME280;60594;50.204;8.844;2023-03-20T08:28:51;100355.06;;;9.40;100.00
72570;BME280;60594;50.204;8.844;2023-03-20T08:31:17;100349.94;;;9.49;100.00
72570;BME280;60594;50.204;8.844;2023-03-20T08:33:45;100358.03;;;9.48;100.00
72570;BME280;60594;50.204;8.844;2023-03-20T08:36:12;100366.09;;;9.46;100.00
72570;BME280;60594;50.204;8.844;2023-03-20T08:38:41;100366.38;;;9.31;100.00
72570;BME280;60594;50.204;8.844;2023-03-20T08:41:08;100368.19;;;9.30;100.00
72570;BME280;60594;50.204;8.844;2023-03-20T08:43:35;100376.78;;;9.34;100.00
72570;BME280;60594;50.204;8.844;2023-03-20T08:46:01;100378.97;;;9.52;100.00
72570;BME280;60594;50.204;8.844;2023-03-20T08:48:28;100378.03;;;9.41;100.00
72570;BME280;60594;50.204;8.844;2023-03-20T08:50:54;100380.09;;;9.37;100.00
72570;BME280;60594;50.204;8.844;2023-03-20T08:53:21;100373.25;;;9.10;100.00
72570;BME280;60594;50.204;8.844;2023-03-20T08:55:48;100387.16;;;9.01;100.00
72570;BME280;60594;50.204;8.844;2023-03-20T08:58:16;100386.84;;;9.05;100.00
72570;BME280;60594;50.204;8.844;2023-03-20T09:00:43;100385.25;;;9.15;100.00
72570;BME280;60594;50.204;8.844;2023-03-20T09:03:15;100382.91;;;9.11;100.00
72570;BME280;60594;50.204;8.844;2023-03-20T09:05:44;100374.19;;;8.96;100.00
72570;BME280;60594;50.204;8.844;2023-03-20T09:08:11;100392.91;;;9.07;100.00
72570;BME280;60594;50.204;8.844;2023-03-20T09:10:37;100385.97;;;9.17;100.00
72570;BME280;60594;50.204;8.844;2023-03-20T09:13:04;100381.84;;;9.13;100.00
72570;BME280;60594;50.204;8.844;2023-03-20T09:15:30;100383.31;;;9.17;100.00
72570;BME280;60594;50.204;8.844;2023-03-20T09:17:57;100386.94;;;9.16;100.00
72570;BME280;60594;50.204;8.844;2023-03-20T09:20:23;100380.25;;;9.11;100.00
72570;BME280;60594;50.204;8.844;2023-03-20T09:22:50;100373.44;;;9.19;100.00
72570;BME280;60594;50.204;8.844;2023-03-20T09:25:16;100380.41;;;9.33;100.00
72570;BME280;60594;50.204;8.844;2023-03-20T09:27:43;100367.13;;;9.33;100.00
72570;BME280;60594;50.204;8.844;2023-03-20T09:30:10;100375.22;;;9.55;100.00
72570;BME280;60594;50.204;8.844;2023-03-20T09:32:37;100387.84;;;9.64;100.00
72570;BME280;60594;50.204;8.844;2023-03-20T09:35:04;100377.09;;;9.65;100.00
72570;BME280;60594;50.204;8.844;2023-03-20T09:37:32;100397.03;;;9.60;100.00
72570;BME280;60594;50.204;8.844;2023-03-20T09:39:58;100395.16;;;9.49;100.00
72570;BME280;60594;50.204;8.844;2023-03-20T09:48:04;100391.53;;;9.97;100.00
72570;BME280;60594;50.204;8.844;2023-03-20T09:50:42;100383.84;;;10.05;100.00
72570;BME280;60594;50.204;8.844;2023-03-20T09:53:28;100389.59;;;9.99;98.40
72570;BME280;60594;50.204;8.844;2023-03-20T09:55:56;100391.69;;;10.30;96.87
72570;BME280;60594;50.204;8.844;2023-03-20T09:58:26;100394.78;;;10.48;97.64
72570;BME280;60594;50.204;8.844;2023-03-20T10:00:56;100390.34;;;10.25;98.61
72570;BME280;60594;50.204;8.844;2023-03-20T10:03:29;100389.00;;;10.76;99.46
72570;BME280;60594;50.204;8.844;2023-03-20T10:06:03;100384.38;;;11.66;93.99
72570;BME280;60594;50.204;8.844;2023-03-20T10:08:34;100388.50;;;12.02;87.43
72570;BME280;60594;50.204;8.844;2023-03-20T10:11:30;100396.38;;;12.03;87.59
72570;BME280;60594;50.204;8.844;2023-03-20T10:17:00;100386.88;;;12.92;83.93
72570;BME280;60594;50.204;8.844;2023-03-20T10:19:51;100389.91;;;12.99;83.87
72570;BME280;60594;50.204;8.844;2023-03-20T10:22:35;100389.91;;;13.29;81.72
72570;BME280;60594;50.204;8.844;2023-03-20T10:27:54;100380.66;;;13.52;80.25
72570;BME280;60594;50.204;8.844;2023-03-20T10:30:27;100391.13;;;13.55;80.41
72570;BME280;60594;50.204;8.844;2023-03-20T10:35:50;100394.63;;;12.65;83.00
72570;BME280;60594;50.204;8.844;2023-03-20T10:38:41;100381.91;;;12.99;83.26
72570;BME280;60594;50.204;8.844;2023-03-20T10:41:23;100379.09;;;13.00;81.27
72570;BME280;60594;50.204;8.844;2023-03-20T10:43:51;100371.81;;;12.91;82.38
72570;BME280;60594;50.204;8.844;2023-03-20T10:46:24;100375.25;;;13.33;80.11
72570;BME280;60594;50.204;8.844;2023-03-20T10:49:04;100368.56;;;13.57;78.89
72570;BME280;60594;50.204;8.844;2023-03-20T10:51:40;100372.34;;;13.06;79.75
72570;BME280;60594;50.204;8.844;2023-03-20T10:54:23;100370.13;;;12.40;84.28
72570;BME280;60594;50.204;8.844;2023-03-20T10:56:52;100377.72;;;12.65;82.26
72570;BME280;60594;50.204;8.844;2023-03-20T10:59:38;100370.84;;;12.10;84.60
72570;BME280;60594;50.204;8.844;2023-03-20T11:02:13;100364.03;;;12.38;84.46
72570;BME280;60594;50.204;8.844;2023-03-20T11:04:40;100373.09;;;12.26;84.56
72570;BME280;60594;50.204;8.844;2023-03-20T11:07:24;100367.03;;;12.24;85.15
72570;BME280;60594;50.204;8.844;2023-03-20T11:15:26;100363.47;;;12.55;80.85
72570;BME280;60594;50.204;8.844;2023-03-20T11:17:56;100363.66;;;12.42;80.51
72570;BME280;60594;50.204;8.844;2023-03-20T11:20:25;100363.25;;;12.26;80.10
72570;BME280;60594;50.204;8.844;2023-03-20T11:23:01;100361.34;;;12.17;78.84
72570;BME280;60594;50.204;8.844;2023-03-20T11:25:31;100361.22;;;12.19;78.97
72570;BME280;60594;50.204;8.844;2023-03-20T11:28:39;100360.88;;;11.92;80.92
72570;BME280;60594;50.204;8.844;2023-03-20T11:33:38;100342.84;;;12.25;79.81
72570;BME280;60594;50.204;8.844;2023-03-20T11:36:18;100343.88;;;13.05;77.89
72570;BME280;60594;50.204;8.844;2023-03-20T11:38:46;100327.53;;;13.47;73.92
72570;BME280;60594;50.204;8.844;2023-03-20T11:41:24;100334.00;;;13.54;71.70
72570;BME280;60594;50.204;8.844;2023-03-20T11:43:52;100331.19;;;13.46;71.97
72570;BME280;60594;50.204;8.844;2023-03-20T11:46:20;100331.31;;;13.45;71.20
72570;BME280;60594;50.204;8.844;2023-03-20T11:49:05;100332.50;;;13.12;69.97
72570;BME280;60594;50.204;8.844;2023-03-20T11:51:34;100323.66;;;13.21;70.43
72570;BME280;60594;50.204;8.844;2023-03-20T11:54:04;100326.25;;;13.42;69.63
72570;BME280;60594;50.204;8.844;2023-03-20T11:56:33;100322.22;;;13.76;68.58
72570;BME280;60594;50.204;8.844;2023-03-20T11:59:14;100328.97;;;13.71;67.97
72570;BME280;60594;50.204;8.844;2023-03-20T12:01:49;100319.53;;;13.86;68.15
72570;BME280;60594;50.204;8.844;2023-03-20T12:04:30;100318.97;;;13.82;66.26
72570;BME280;60594;50.204;8.844;2023-03-20T12:09:43;100312.03;;;13.41;68.19
72570;BME280;60594;50.204;8.844;2023-03-20T12:12:32;100316.69;;;13.68;66.83
72570;BME280;60594;50.204;8.844;2023-03-20T12:17:55;100298.38;;;13.83;66.58
72570;BME280;60594;50.204;8.844;2023-03-20T12:25:43;100291.66;;;13.20;69.78
72570;BME280;60594;50.204;8.844;2023-03-20T12:28:30;100285.94;;;13.34;70.41
72570;BME280;60594;50.204;8.844;2023-03-20T12:31:03;100290.03;;;13.38;70.94
72570;BME280;60594;50.204;8.844;2023-03-20T12:33:44;100280.22;;;12.99;71.08
72570;BME280;60594;50.204;8.844;2023-03-20T12:36:17;100281.06;;;12.99;72.50
72570;BME280;60594;50.204;8.844;2023-03-20T12:38:46;100271.22;;;13.09;71.72
72570;BME280;60594;50.204;8.844;2023-03-20T12:41:51;100277.22;;;13.32;71.93
72570;BME280;60594;50.204;8.844;2023-03-20T12:44:26;100273.06;;;13.09;70.78
72570;BME280;60594;50.204;8.844;2023-03-20T12:47:11;100271.78;;;13.03;71.29
72570;BME280;60594;50.204;8.844;2023-03-20T12:49:56;100261.50;;;12.99;71.87
72570;BME280;60594;50.204;8.844;2023-03-20T12:52:41;100259.53;;;13.01;72.14
72570;BME280;60594;50.204;8.844;2023-03-20T13:01:09;100247.34;;;12.87;72.59
72570;BME280;60594;50.204;8.844;2023-03-20T13:06:31;100253.91;;;13.04;71.72
72570;BME280;60594;50.204;8.844;2023-03-20T13:12:13;100243.81;;;13.26;71.24
72570;BME280;60594;50.204;8.844;2023-03-20T13:17:46;100239.56;;;13.33;70.44
72570;BME280;60594;50.204;8.844;2023-03-20T13:39:55;100216.59;;;13.31;68.93
72570;BME280;60594;50.204;8.844;2023-03-20T13:42:28;100225.34;;;13.14;69.09
72570;BME280;60594;50.204;8.844;2023-03-20T13:45:10;100215.31;;;13.06;67.70
72570;BME280;60594;50.204;8.844;2023-03-20T13:47:45;100213.91;;;13.12;67.48
72570;BME280;60594;50.204;8.844;2023-03-20T13:50:32;100218.00;;;13.16;68.04
72570;BME280;60594;50.204;8.844;2023-03-20T13:53:28;100214.66;;;13.23;65.95
72570;BME280;60594;50.204;8.844;2023-03-20T13:56:05;100219.41;;;13.20;66.23
72570;BME280;60594;50.204;8.844;2023-03-20T13:58:38;100223.63;;;13.13;65.71
72570;BME280;60594;50.204;8.844;2023-03-20T14:01:17;100213.78;;;13.13;66.64
72570;BME280;60594;50.204;8.844;2023-03-20T14:03:48;100211.09;;;13.13;65.71
72570;BME280;60594;50.204;8.844;2023-03-20T14:08:52;100205.91;;;13.31;64.75
72570;BME280;60594;50.204;8.844;2023-03-20T14:13:48;100200.81;;;13.28;59.97
72570;BME280;60594;50.204;8.844;2023-03-20T14:16:17;100196.03;;;13.22;60.58
72570;BME280;60594;50.204;8.844;2023-03-20T14:18:57;100205.19;;;13.10;60.78
72570;BME280;60594;50.204;8.844;2023-03-20T14:21:29;100206.00;;;13.01;60.24
72570;BME280;60594;50.204;8.844;2023-03-20T14:24:02;100200.78;;;12.99;60.70
72570;BME280;60594;50.204;8.844;2023-03-20T14:26:57;100209.41;;;13.12;62.30
72570;BME280;60594;50.204;8.844;2023-03-20T14:32:31;100213.59;;;12.96;61.38
72570;BME280;60594;50.204;8.844;2023-03-20T14:40:57;100214.38;;;12.87;61.28
72570;BME280;60594;50.204;8.844;2023-03-20T14:43:44;100216.38;;;12.85;61.17
72570;BME280;60594;50.204;8.844;2023-03-20T14:46:25;100222.41;;;12.87;61.30
72570;BME280;60594;50.204;8.844;2023-03-20T14:48:54;100211.16;;;12.83;61.87
72570;BME280;60594;50.204;8.844;2023-03-20T14:51:40;100219.56;;;12.79;61.39
72570;BME280;60594;50.204;8.844;2023-03-20T14:56:49;100223.25;;;12.78;58.09
72570;BME280;60594;50.204;8.844;2023-03-20T14:59:17;100219.28;;;12.72;58.82
72570;BME280;60594;50.204;8.844;2023-03-20T15:01:56;100217.72;;;12.70;59.17
72570;BME280;60594;50.204;8.844;2023-03-20T15:04:52;100215.63;;;12.73;58.97
72570;BME280;60594;50.204;8.844;2023-03-20T15:09:48;100218.00;;;12.67;58.89
72570;BME280;60594;50.204;8.844;2023-03-20T15:12:22;100228.56;;;12.68;58.22
72570;BME280;60594;50.204;8.844;2023-03-20T15:14:56;100223.22;;;12.68;57.46
72570;BME280;60594;50.204;8.844;2023-03-20T15:17:25;100220.41;;;12.70;58.04
72570;BME280;60594;50.204;8.844;2023-03-20T15:20:24;100221.78;;;12.64;58.67
72570;BME280;60594;50.204;8.844;2023-03-20T15:22:53;100217.56;;;12.62;58.03
72570;BME280;60594;50.204;8.844;2023-03-20T15:25:22;100219.25;;;12.63;58.40